createdAt,value
2022-08-02T00:01:06.225Z,15.63
2022-08-02T00:06:08.991Z,20.47
2022-08-02T00:11:11.722Z,13.00
2022-08-02T00:16:16.937Z,10.70
2022-08-02T00:21:19.967Z,12.03
2022-08-02T00:26:22.706Z,22.10
2022-08-02T00:31:25.381Z,24.23
2022-08-02T00:36:28.155Z,25.27
2022-08-02T00:41:30.888Z,22.50
2022-08-02T00:46:33.548Z,18.57
2022-08-02T00:51:36.371Z,15.40
2022-08-02T00:56:39.253Z,13.30
2022-08-02T01:01:55.666Z,12.87
2022-08-02T01:07:01.608Z,11.43
2022-08-02T01:12:04.433Z,12.43
2022-08-02T01:17:14.713Z,14.67
2022-08-02T01:22:59.947Z,14.33
2022-08-02T01:28:17.331Z,15.00
2022-08-02T01:33:21.153Z,21.77
2022-08-02T01:38:42.378Z,22.70
2022-08-02T01:43:45.807Z,18.33
2022-08-02T01:48:49.789Z,15.97
2022-08-02T01:53:52.586Z,13.33
2022-08-02T01:58:55.674Z,11.00
2022-08-02T02:03:59.382Z,10.10
2022-08-02T02:09:03.513Z,9.87
2022-08-02T02:14:08.540Z,8.83
2022-08-02T02:19:11.589Z,8.90
2022-08-02T02:24:14.467Z,9.33
2022-08-02T02:29:20.981Z,8.67
2022-08-02T02:34:42.952Z,9.80
2022-08-02T02:39:46.331Z,11.50
2022-08-02T02:44:49.702Z,10.83
2022-08-02T02:49:53.081Z,13.47
2022-08-02T02:54:56.663Z,14.40
2022-08-02T03:00:00.286Z,15.97
2022-08-02T03:05:04.200Z,15.67
2022-08-02T03:10:08.142Z,14.50
2022-08-02T03:15:13.819Z,16.93
2022-08-02T03:20:18.320Z,15.90
2022-08-02T03:25:21.047Z,16.80
2022-08-02T03:30:26.943Z,22.13
2022-08-02T03:35:29.774Z,19.97
2022-08-02T03:40:32.738Z,19.57
2022-08-02T03:45:36.133Z,22.00
2022-08-02T03:50:39.288Z,21.37
2022-08-02T03:55:42.036Z,22.70
2022-08-02T04:00:44.910Z,21.50
2022-08-02T04:06:03.736Z,16.57
2022-08-02T04:11:26.568Z,16.47
2022-08-02T04:16:42.965Z,14.17
2022-08-02T04:21:51.093Z,12.50
2022-08-02T04:27:06.854Z,15.47
2022-08-02T04:32:22.875Z,16.70
2022-08-02T04:37:26.958Z,16.37
2022-08-02T04:42:29.686Z,17.20
2022-08-02T04:48:02.343Z,16.70
2022-08-02T04:52:55.147Z,15.10
2022-08-02T04:57:58.929Z,13.83
2022-08-02T05:03:02.059Z,12.93
2022-08-02T05:08:05.114Z,12.07
2022-08-02T05:13:07.823Z,12.03
2022-08-02T05:18:10.586Z,13.93
2022-08-02T05:23:14.229Z,13.47
2022-08-02T05:28:16.948Z,16.17
2022-08-02T05:33:21.897Z,14.07
2022-08-02T05:38:26.021Z,15.20
2022-08-02T05:43:28.812Z,16.80
2022-08-02T05:48:32.366Z,17.33
2022-08-02T05:53:52.722Z,16.97
2022-08-02T05:59:05.017Z,17.90
2022-08-02T06:04:09.914Z,19.20
2022-08-02T06:09:23.116Z,19.03
2022-08-02T06:14:33.253Z,21.43
2022-08-02T06:19:51.792Z,18.50
2022-08-02T06:24:59.123Z,17.73
2022-08-02T06:30:03.646Z,19.00
2022-08-02T06:35:06.793Z,17.00
2022-08-02T06:40:30.047Z,15.90
2022-08-02T06:45:33.987Z,14.80
2022-08-02T06:50:42.209Z,17.17
2022-08-02T06:55:45.029Z,14.87
2022-08-02T07:00:47.852Z,13.37
2022-08-02T07:05:50.561Z,13.70
2022-08-02T07:10:53.359Z,12.33
2022-08-02T07:15:56.589Z,14.73
2022-08-02T07:20:59.262Z,15.43
2022-08-02T07:26:05.333Z,14.87
2022-08-02T07:31:08.698Z,18.70
2022-08-02T07:36:16.966Z,17.13
2022-08-02T07:41:25.970Z,14.50
2022-08-02T07:46:28.798Z,14.60
2022-08-02T07:51:33.470Z,15.43
2022-08-02T07:56:36.175Z,17.13
2022-08-02T08:01:39.022Z,16.27
2022-08-02T08:06:52.043Z,13.67
2022-08-02T08:11:54.740Z,15.63
2022-08-02T08:16:57.474Z,14.43
2022-08-02T08:22:00.911Z,13.73
2022-08-02T08:27:06.298Z,13.65
2022-08-02T08:32:15.843Z,12.60
2022-08-02T08:37:19.700Z,12.10
2022-08-02T08:42:22.411Z,13.27
2022-08-02T08:47:36.027Z,11.57
2022-08-02T08:52:50.614Z,11.17
2022-08-02T08:57:54.946Z,10.98
2022-08-02T09:02:58.549Z,10.82
2022-08-02T09:08:01.228Z,10.30
2022-08-02T09:13:37.897Z,10.05
2022-08-02T09:18:38.633Z,10.38
2022-08-02T09:23:49.670Z,9.55
2022-08-02T09:28:59.853Z,9.73
2022-08-02T09:34:02.681Z,10.35
2022-08-02T09:39:08.468Z,10.02
2022-08-02T09:44:15.932Z,10.13
2022-08-02T09:49:20.209Z,8.88
2022-08-02T09:54:28.914Z,12.77
2022-08-02T09:59:31.908Z,12.32
2022-08-02T10:04:52.144Z,10.40
2022-08-02T10:09:56.066Z,11.57
2022-08-02T10:14:59.638Z,11.98
2022-08-02T10:20:04.790Z,10.80
2022-08-02T10:25:09.135Z,12.93
2022-08-02T10:30:12.261Z,10.70
2022-08-02T10:35:25.553Z,10.00
2022-08-02T10:40:46.122Z,8.57
2022-08-02T10:45:51.585Z,8.43
2022-08-02T10:50:54.416Z,8.45
2022-08-02T10:55:59.719Z,7.32
2022-08-02T11:01:27.284Z,7.50
2022-08-02T11:07:06.644Z,7.75
2022-08-02T11:12:12.218Z,9.02
2022-08-02T11:17:19.142Z,10.45
2022-08-02T11:22:25.670Z,9.38
2022-08-02T11:27:29.827Z,8.38
2022-08-02T11:32:34.329Z,8.95
2022-08-02T11:37:41.338Z,7.97
2022-08-02T11:42:45.821Z,7.90
2022-08-02T11:47:50.594Z,7.22
2022-08-02T11:52:56.173Z,7.20
2022-08-02T11:58:05.960Z,7.80
2022-08-02T12:03:09.046Z,7.30
2022-08-02T12:08:11.791Z,6.63
2022-08-02T12:13:15.573Z,8.27
2022-08-02T12:18:39.641Z,7.97
2022-08-02T12:23:59.438Z,8.20
2022-08-02T12:29:03.898Z,7.72
2022-08-02T12:34:16.959Z,7.30
2022-08-02T12:39:19.660Z,6.90
2022-08-02T12:44:22.373Z,7.93
2022-08-02T12:49:25.142Z,7.07
2022-08-02T12:54:36.078Z,6.53
2022-08-02T12:59:40.393Z,6.47
2022-08-02T13:04:49.674Z,5.97
2022-08-02T13:10:03.097Z,6.93
2022-08-02T13:15:12.291Z,6.20
2022-08-02T13:20:31.080Z,6.32
2022-08-02T13:25:34.718Z,5.20
2022-08-02T13:30:37.714Z,5.13
2022-08-02T13:35:40.417Z,4.97
2022-08-02T13:41:04.851Z,5.18
2022-08-02T13:46:08.181Z,6.40
2022-08-02T13:51:14.741Z,6.10
2022-08-02T13:56:17.723Z,5.63
2022-08-02T14:01:20.484Z,4.78
2022-08-02T14:06:23.402Z,5.80
2022-08-02T14:11:26.233Z,5.13
2022-08-02T14:16:33.067Z,5.93
2022-08-02T14:21:46.096Z,5.30
2022-08-02T14:26:50.882Z,4.53
2022-08-02T14:31:53.620Z,5.50
2022-08-02T14:36:56.985Z,4.97
2022-08-02T14:42:00.900Z,4.30
2022-08-02T14:47:05.864Z,5.00
2022-08-02T14:52:08.691Z,4.93
2022-08-02T14:57:11.876Z,5.25
2022-08-02T15:02:14.888Z,5.30
2022-08-02T15:07:17.811Z,5.40
2022-08-02T15:12:20.576Z,4.43
2022-08-02T15:17:23.354Z,5.95
2022-08-02T15:22:26.039Z,5.00
2022-08-02T15:27:29.125Z,4.20
2022-08-02T15:32:31.848Z,5.10
2022-08-02T15:37:37.189Z,5.70
2022-08-02T15:42:44.414Z,5.28
2022-08-02T15:47:50.701Z,4.95
2022-08-02T15:52:53.541Z,4.88
2022-08-02T15:57:56.319Z,4.82
2022-08-02T16:02:59.032Z,4.95
2022-08-02T16:08:01.811Z,4.68
2022-08-02T16:13:52.630Z,3.90
2022-08-02T16:18:56.524Z,4.35
2022-08-02T16:24:02.636Z,4.53
2022-08-02T16:29:06.487Z,4.07
2022-08-02T16:34:09.752Z,4.13
2022-08-02T16:39:12.670Z,3.83
2022-08-02T16:44:17.110Z,4.10
2022-08-02T16:50:07.430Z,3.95
2022-08-02T16:54:42.761Z,4.57
2022-08-02T16:59:57.352Z,4.13
2022-08-02T17:05:01.221Z,4.20
2022-08-02T17:10:06.709Z,4.15
2022-08-02T17:16:01.525Z,3.72
2022-08-02T17:20:35.191Z,4.88
2022-08-02T17:25:41.757Z,4.35
2022-08-02T17:30:45.048Z,4.38
2022-08-02T17:41:15.283Z,5.03
2022-08-02T17:46:18.163Z,4.22
2022-08-02T17:52:15.534Z,5.00
2022-08-02T17:56:44.238Z,4.70
2022-08-02T18:01:52.457Z,5.50
2022-08-02T18:07:04.214Z,4.57
2022-08-02T18:12:07.071Z,4.63
2022-08-02T18:17:09.779Z,5.18
2022-08-02T18:22:13.864Z,5.35
2022-08-02T18:27:16.867Z,5.25
2022-08-02T18:33:54.433Z,5.20
2022-08-02T18:37:45.442Z,5.22
2022-08-02T18:42:51.735Z,4.53
2022-08-02T18:47:55.018Z,4.93
2022-08-02T18:52:59.411Z,4.40
2022-08-02T18:58:19.343Z,5.25
2022-08-02T19:03:22.717Z,4.70
2022-08-02T19:08:26.474Z,4.93
2022-08-02T19:13:29.503Z,4.70
2022-08-02T19:18:32.337Z,4.75
2022-08-02T19:23:35.355Z,4.57
2022-08-02T19:28:41.290Z,5.43
2022-08-02T19:34:06.331Z,5.07
2022-08-02T19:39:08.754Z,5.13
2022-08-02T19:44:22.840Z,5.35
2022-08-02T19:49:39.570Z,5.35
2022-08-02T19:54:55.816Z,6.47
2022-08-02T19:59:59.785Z,7.38
2022-08-02T20:05:08.062Z,8.93
2022-08-02T20:15:56.511Z,8.43
2022-08-02T20:20:59.729Z,8.43
2022-08-02T20:26:02.585Z,10.10
2022-08-02T20:31:08.974Z,11.57
2022-08-02T20:36:12.130Z,11.75
2022-08-02T20:41:20.237Z,11.27
2022-08-02T20:46:24.761Z,12.45
2022-08-02T20:51:33.618Z,11.80
2022-08-02T20:56:37.518Z,12.90
2022-08-02T21:01:40.354Z,12.00
2022-08-02T21:06:59.808Z,14.48
2022-08-02T21:12:02.521Z,14.60
2022-08-02T21:17:10.559Z,14.27
2022-08-02T21:22:14.885Z,14.68
2022-08-02T21:27:52.858Z,13.98
2022-08-02T21:32:40.528Z,13.38
2022-08-02T21:37:44.894Z,13.63
2022-08-02T21:42:49.027Z,13.73
2022-08-02T21:47:51.849Z,14.23
2022-08-02T21:52:54.559Z,13.53
2022-08-02T21:57:57.241Z,13.30
2022-08-02T22:02:59.920Z,13.48
2022-08-02T22:08:22.607Z,14.40
2022-08-02T22:13:26.264Z,13.77
2022-08-02T22:18:42.421Z,14.70
2022-08-02T22:23:54.693Z,14.27
2022-08-02T22:28:59.676Z,13.38
2022-08-02T22:34:26.845Z,14.95
2022-08-02T22:39:31.135Z,14.83
2022-08-02T22:44:35.908Z,14.00
2022-08-02T22:49:45.331Z,14.30
2022-08-02T22:54:54.857Z,14.32
2022-08-02T22:58:49.365Z,4.50
2022-08-02T22:58:54.798Z,8.73
2022-08-02T22:59:58.245Z,13.57
2022-08-02T23:05:01.034Z,13.93
2022-08-02T23:10:05.995Z,13.83
2022-08-02T23:15:09.521Z,13.20
2022-08-02T23:20:13.670Z,14.27
2022-08-02T23:25:16.488Z,14.47
2022-08-02T23:30:19.891Z,14.73
2022-08-02T23:35:22.754Z,14.40
2022-08-02T23:40:39.866Z,14.60
2022-08-02T23:45:46.245Z,14.60
2022-08-02T23:50:49.234Z,14.10
2022-08-02T23:55:51.984Z,15.20
